Time;durP1;ratioP1;P1;durP2;ratioP2;P2;SDS_P1;SDS_P2;PMS_P1;PMS_P2;Temp;Humidity;BMP_temperature;BMP_pressure;BME280_temperature;BME280_humidity;BME280_pressure;Samples;Min_cycle;Max_cycle;Signal;HPM_P1;HPM_P2
2022/08/01 04:02:08;;;;;;;3.70;3.40;;;20.00;99.90;;;;;;5266779;23;20532;-75
2022/08/01 04:04:35;;;;;;;3.60;3.20;;;20.00;99.90;;;;;;5045729;28;20433;-75
2022/08/01 04:07:06;;;;;;;3.93;3.50;;;20.00;99.90;;;;;;5046042;28;20457;-75
2022/08/01 04:09:33;;;;;;;4.60;3.50;;;20.00;99.90;;;;;;5045600;28;20469;-72
2022/08/01 04:12:01;;;;;;;4.70;3.13;;;20.00;99.90;;;;;;5031079;28;20473;-72
2022/08/01 04:14:27;;;;;;;3.87;3.47;;;20.00;99.90;;;;;;5025669;28;20568;-72
2022/08/01 04:16:54;;;;;;;4.00;3.13;;;20.00;99.90;;;;;;5025934;28;20489;-72
2022/08/01 04:19:23;;;;;;;4.43;3.23;;;19.90;99.90;;;;;;5026202;28;20764;-72
2022/08/01 04:21:50;;;;;;;5.23;3.40;;;19.90;99.90;;;;;;5025446;28;20684;-71
2022/08/01 04:24:19;;;;;;;5.57;3.60;;;19.90;99.90;;;;;;5025428;28;20457;-72
2022/08/01 04:26:48;;;;;;;4.27;3.30;;;19.80;99.90;;;;;;5026031;28;20469;-72
2022/08/01 04:29:17;;;;;;;6.43;3.40;;;19.80;99.90;;;;;;5026099;28;20462;-73
2022/08/01 04:31:46;;;;;;;6.17;4.00;;;19.80;99.90;;;;;;5026142;28;20491;-72
2022/08/01 04:34:16;;;;;;;4.50;3.33;;;19.80;99.90;;;;;;5025609;28;20457;-72
2022/08/01 04:36:45;;;;;;;5.00;3.53;;;19.80;99.90;;;;;;5026247;28;20481;-73
2022/08/01 04:39:14;;;;;;;4.20;3.80;;;19.80;99.90;;;;;;5025809;28;21263;-73
2022/08/01 04:41:42;;;;;;;4.53;3.60;;;19.80;99.90;;;;;;5025685;28;20597;-72
2022/08/01 04:44:09;;;;;;;4.03;3.67;;;19.70;99.90;;;;;;5025163;28;20465;-70
2022/08/01 04:46:37;;;;;;;4.07;3.50;;;19.70;99.90;;;;;;5025716;28;20459;-71
2022/08/01 04:49:06;;;;;;;6.17;3.03;;;19.70;99.90;;;;;;5025975;28;20465;-72
2022/08/01 04:51:34;;;;;;;9.33;3.73;;;19.70;99.90;;;;;;5026010;28;20540;-72
2022/08/01 04:54:02;;;;;;;5.23;3.83;;;19.70;99.90;;;;;;5024952;28;20516;-72
2022/08/01 04:56:29;;;;;;;5.30;3.77;;;19.70;99.90;;;;;;5025247;28;21195;-72
2022/08/01 05:01:37;;;;;;;5.00;3.80;;;19.70;99.90;;;;;;5023962;28;20493;-72
2022/08/01 05:04:04;;;;;;;5.37;3.57;;;19.70;99.90;;;;;;5024803;28;20454;-71
2022/08/01 05:06:31;;;;;;;4.30;3.33;;;19.70;99.90;;;;;;5025452;28;20820;-74
2022/08/01 05:08:57;;;;;;;6.80;4.00;;;19.70;99.90;;;;;;5025467;28;20839;-74
2022/08/01 05:11:26;;;;;;;7.00;3.90;;;19.70;99.90;;;;;;5025512;28;20480;-75
2022/08/01 05:13:52;;;;;;;3.60;3.30;;;19.70;99.90;;;;;;5025699;28;20460;-75
2022/08/01 05:16:19;;;;;;;4.30;3.47;;;19.80;99.90;;;;;;5024477;28;20958;-75
2022/08/01 05:18:46;;;;;;;5.13;3.30;;;19.80;99.90;;;;;;5025233;28;20458;-74
2022/08/01 05:21:13;;;;;;;5.60;3.60;;;19.80;99.90;;;;;;5022646;28;21006;-75
2022/08/01 05:23:39;;;;;;;5.70;3.97;;;19.80;99.90;;;;;;5025018;28;20457;-74
2022/08/01 05:26:07;;;;;;;4.50;3.40;;;19.80;99.90;;;;;;5024606;28;20466;-74
2022/08/01 05:28:35;;;;;;;4.10;3.13;;;19.80;99.90;;;;;;5024385;28;20469;-75
2022/08/01 05:31:02;;;;;;;5.03;3.70;;;19.80;99.90;;;;;;5025033;28;20481;-74
2022/08/01 05:33:28;;;;;;;4.47;3.90;;;19.90;99.90;;;;;;5023585;28;20881;-75
2022/08/01 05:35:55;;;;;;;6.73;3.57;;;19.90;99.90;;;;;;5023756;28;20464;-74
2022/08/01 05:38:22;;;;;;;6.47;3.60;;;19.90;99.90;;;;;;5024073;28;20951;-75
2022/08/01 05:40:49;;;;;;;4.07;3.60;;;19.90;99.90;;;;;;5024398;28;20494;-75
2022/08/01 05:43:16;;;;;;;4.30;3.90;;;19.90;99.90;;;;;;5023693;28;20460;-74
2022/08/01 05:45:44;;;;;;;6.50;3.80;;;20.00;99.90;;;;;;5023745;28;20460;-74
2022/08/01 05:48:11;;;;;;;5.17;3.67;;;20.00;99.90;;;;;;5023853;28;21237;-76
2022/08/01 05:50:38;;;;;;;4.00;3.60;;;20.00;99.90;;;;;;5026185;28;20482;-75
2022/08/01 05:53:04;;;;;;;4.70;3.70;;;20.00;99.90;;;;;;5025558;28;20454;-75
2022/08/01 05:55:31;;;;;;;5.03;4.43;;;20.10;99.90;;;;;;5023542;28;20453;-75
2022/08/01 05:57:58;;;;;;;6.40;3.73;;;20.10;99.90;;;;;;5024665;28;20469;-72
2022/08/01 06:00:25;;;;;;;3.80;3.43;;;20.00;99.90;;;;;;5023760;28;20984;-75
2022/08/01 06:02:53;;;;;;;3.70;3.20;;;20.10;99.90;;;;;;5025049;28;20494;-74
2022/08/01 06:05:20;;;;;;;5.20;3.47;;;20.10;99.90;;;;;;5024451;28;20460;-75
2022/08/01 06:07:46;;;;;;;4.63;3.90;;;20.10;99.90;;;;;;5026073;28;20484;-76
2022/08/01 06:10:13;;;;;;;4.00;3.37;;;20.10;99.90;;;;;;5025473;28;20465;-76
2022/08/01 06:12:40;;;;;;;8.43;3.90;;;20.20;99.90;;;;;;5025125;28;20464;-76
2022/08/01 06:15:08;;;;;;;5.77;3.30;;;20.20;99.90;;;;;;5024228;28;20533;-74
2022/08/01 06:17:35;;;;;;;4.93;3.80;;;20.20;99.90;;;;;;5025428;28;20462;-76
2022/08/01 06:20:05;;;;;;;3.93;3.50;;;20.20;99.90;;;;;;5025312;28;20450;-76
2022/08/01 06:22:32;;;;;;;8.83;3.50;;;20.30;99.90;;;;;;5024834;28;20501;-76
2022/08/01 06:24:59;;;;;;;4.40;3.50;;;20.30;99.90;;;;;;5024254;28;20950;-74
2022/08/01 06:27:26;;;;;;;6.93;3.57;;;20.30;99.90;;;;;;5025322;28;20548;-76
2022/08/01 06:29:54;;;;;;;5.50;3.37;;;20.40;99.90;;;;;;5025448;28;20449;-75
2022/08/01 06:32:22;;;;;;;8.43;3.87;;;20.40;99.90;;;;;;5025609;28;20513;-73
2022/08/01 06:34:49;;;;;;;3.43;2.90;;;20.50;99.90;;;;;;5028466;28;20472;-76
2022/08/01 06:37:17;;;;;;;4.00;3.57;;;20.50;99.90;;;;;;5029427;28;20957;-75
2022/08/01 06:39:44;;;;;;;4.90;3.50;;;20.50;99.90;;;;;;5028374;28;20831;-75
2022/08/01 06:42:11;;;;;;;3.70;3.13;;;20.50;99.90;;;;;;5026744;28;20709;-75
2022/08/01 06:44:37;;;;;;;4.87;3.73;;;20.60;99.90;;;;;;5026904;28;20454;-76
2022/08/01 06:47:04;;;;;;;3.50;3.20;;;20.60;99.90;;;;;;5028697;28;20466;-76
2022/08/01 06:49:31;;;;;;;7.63;3.23;;;20.60;99.90;;;;;;5027889;28;20488;-74
2022/08/01 06:51:58;;;;;;;6.50;3.97;;;20.70;99.90;;;;;;5027323;28;20474;-76
2022/08/01 06:54:26;;;;;;;6.20;3.70;;;20.70;99.90;;;;;;5026911;28;20462;-76
2022/08/01 06:56:53;;;;;;;6.47;3.10;;;20.70;99.90;;;;;;5027703;28;20460;-76
2022/08/01 06:59:20;;;;;;;5.63;3.90;;;20.80;99.90;;;;;;5027681;28;20480;-75
2022/08/01 07:01:46;;;;;;;4.33;3.10;;;20.80;99.90;;;;;;5027317;28;20572;-76
2022/08/01 07:04:13;;;;;;;4.40;4.00;;;20.90;99.90;;;;;;5027040;28;20863;-76
2022/08/01 07:06:40;;;;;;;9.53;3.90;;;20.90;99.90;;;;;;5027441;28;20465;-76
2022/08/01 07:09:07;;;;;;;4.57;2.87;;;20.90;99.90;;;;;;5027351;28;21104;-76
2022/08/01 07:11:35;;;;;;;5.83;3.50;;;21.00;99.90;;;;;;5027524;28;20480;-77
2022/08/01 07:14:02;;;;;;;3.37;2.97;;;21.10;99.90;;;;;;5026489;28;21101;-76
2022/08/01 07:16:29;;;;;;;4.57;3.30;;;21.10;99.90;;;;;;5026910;28;20469;-76
2022/08/01 07:18:56;;;;;;;4.43;2.93;;;21.20;99.90;;;;;;5027108;28;21001;-76
2022/08/01 07:21:23;;;;;;;3.20;2.90;;;21.20;99.90;;;;;;5027287;28;20502;-77
2022/08/01 07:23:50;;;;;;;5.03;2.50;;;21.30;99.90;;;;;;5027072;28;20462;-77
2022/08/01 07:26:17;;;;;;;4.90;2.63;;;21.40;99.90;;;;;;5026640;28;20454;-75
2022/08/01 07:28:45;;;;;;;2.60;2.40;;;21.50;99.90;;;;;;5027457;28;20458;-77
2022/08/01 07:31:12;;;;;;;3.50;2.40;;;21.60;99.90;;;;;;5026717;28;21012;-77
2022/08/01 07:33:39;;;;;;;2.70;2.10;;;21.70;99.90;;;;;;5026690;28;20838;-76
2022/08/01 07:36:06;;;;;;;5.73;2.30;;;21.70;99.90;;;;;;5026299;28;21008;-75
2022/08/01 07:38:32;;;;;;;3.00;2.30;;;21.80;99.90;;;;;;5026827;28;20470;-77
2022/08/01 07:40:59;;;;;;;3.60;2.40;;;21.90;99.90;;;;;;5027290;28;20478;-76
2022/08/01 07:43:26;;;;;;;3.10;2.40;;;22.00;99.90;;;;;;5027131;28;20868;-75
2022/08/01 07:45:54;;;;;;;2.70;2.10;;;22.10;99.90;;;;;;5026023;28;20462;-76
2022/08/01 07:48:23;;;;;;;3.80;2.43;;;22.10;99.90;;;;;;5026794;28;20457;-76
2022/08/01 07:50:50;;;;;;;2.67;2.33;;;22.20;99.90;;;;;;5029547;28;20485;-77
2022/08/01 07:53:17;;;;;;;3.67;2.57;;;22.20;99.90;;;;;;5027254;28;20463;-77
2022/08/01 07:55:44;;;;;;;4.40;2.43;;;22.30;99.90;;;;;;5026741;28;21100;-76
2022/08/01 07:58:11;;;;;;;3.30;2.77;;;22.40;99.90;;;;;;5026769;28;20457;-76
2022/08/01 08:00:38;;;;;;;3.17;2.27;;;22.50;99.90;;;;;;5025012;28;21341;-76
2022/08/01 08:03:07;;;;;;;4.53;2.23;;;22.50;99.90;;;;;;5026093;28;20592;-76
2022/08/01 08:05:35;;;;;;;7.20;2.87;;;22.70;99.90;;;;;;5026153;28;20462;-75
2022/08/01 08:08:02;;;;;;;5.23;2.57;;;22.70;99.90;;;;;;5026729;28;20528;-76
2022/08/01 08:10:28;;;;;;;4.60;2.50;;;22.80;99.90;;;;;;5026563;28;20465;-76
2022/08/01 08:12:55;;;;;;;3.90;2.10;;;22.90;99.90;;;;;;5026457;28;20469;-76
2022/08/01 08:15:22;;;;;;;3.00;2.13;;;22.90;99.90;;;;;;5027561;28;20552;-77
2022/08/01 08:17:49;;;;;;;4.37;2.43;;;23.00;99.90;;;;;;5026802;28;20831;-74
2022/08/01 08:20:18;;;;;;;2.97;2.17;;;23.10;99.90;;;;;;5027669;28;20822;-76
2022/08/01 08:22:45;;;;;;;2.63;2.00;;;23.20;99.90;;;;;;5028159;28;20960;-76
2022/08/01 08:25:12;;;;;;;3.57;2.37;;;23.20;99.90;;;;;;5026273;28;20946;-76
2022/08/01 08:27:39;;;;;;;6.50;2.40;;;23.40;99.90;;;;;;5026403;28;20454;-77
2022/08/01 08:30:08;;;;;;;4.73;1.93;;;23.50;99.90;;;;;;5025630;28;20501;-76
2022/08/01 08:32:35;;;;;;;4.47;2.53;;;23.60;99.90;;;;;;5025416;28;20779;-75
2022/08/01 08:35:02;;;;;;;4.63;2.00;;;23.70;99.90;;;;;;5025013;28;20488;-77
2022/08/01 08:37:30;;;;;;;4.27;2.50;;;23.70;99.90;;;;;;5026192;28;20457;-76
2022/08/01 08:39:57;;;;;;;7.83;2.13;;;23.80;99.90;;;;;;5025950;28;20465;-75
2022/08/01 08:42:24;;;;;;;7.03;2.40;;;23.90;99.90;;;;;;5024969;28;20497;-76
2022/08/01 08:44:51;;;;;;;3.00;2.40;;;24.00;99.90;;;;;;5025223;28;20461;-76
2022/08/01 08:47:19;;;;;;;2.80;2.07;;;24.10;99.90;;;;;;5025452;28;20462;-76
2022/08/01 08:49:47;;;;;;;5.73;2.20;;;24.20;99.90;;;;;;5026045;28;20453;-75
2022/08/01 08:52:15;;;;;;;2.80;2.07;;;24.30;99.90;;;;;;5025716;28;21091;-75
2022/08/01 08:54:45;;;;;;;3.40;2.03;;;24.40;99.90;;;;;;5025702;28;20831;-76
2022/08/01 08:57:15;;;;;;;2.53;1.80;;;24.50;99.90;;;;;;5025098;28;21014;-73
2022/08/01 08:59:44;;;;;;;2.20;2.00;;;24.60;99.90;;;;;;5025789;28;20571;-73
2022/08/01 09:02:11;;;;;;;8.63;2.47;;;24.70;99.90;;;;;;5025253;28;20519;-73
2022/08/01 09:04:39;;;;;;;5.40;2.67;;;24.70;99.90;;;;;;5024681;28;21027;-73
2022/08/01 09:07:08;;;;;;;2.00;1.80;;;24.70;99.90;;;;;;5025711;28;20910;-73
2022/08/01 09:09:35;;;;;;;4.40;2.40;;;24.80;99.90;;;;;;5025440;28;21034;-74
2022/08/01 09:12:04;;;;;;;2.90;1.90;;;24.90;99.90;;;;;;5025966;28;20477;-74
2022/08/01 09:14:31;;;;;;;3.23;2.50;;;24.90;99.90;;;;;;5024620;28;20504;-74
2022/08/01 09:17:02;;;;;;;2.53;1.90;;;25.00;99.90;;;;;;5025691;28;20461;-75
2022/08/01 09:19:36;;;;;;;4.60;2.30;;;25.00;99.90;;;;;;5025289;28;21058;-75
2022/08/01 09:22:05;;;;;;;4.23;2.10;;;25.00;99.90;;;;;;5025051;28;20492;-75
2022/08/01 09:24:33;;;;;;;3.63;2.50;;;25.10;99.90;;;;;;5033812;28;20461;-74
2022/08/01 09:27:01;;;;;;;4.30;2.50;;;25.10;99.90;;;;;;5044524;28;20460;-75
2022/08/01 09:29:31;;;;;;;3.07;2.17;;;25.20;99.90;;;;;;5045485;28;20475;-75
2022/08/01 09:31:59;;;;;;;4.37;2.50;;;25.30;99.90;;;;;;5043925;28;20999;-76
2022/08/01 09:34:28;;;;;;;3.63;2.13;;;25.40;99.90;;;;;;5042207;28;20453;-75
2022/08/01 09:36:56;;;;;;;2.43;1.93;;;25.40;99.90;;;;;;5044761;28;20450;-74
2022/08/01 09:39:25;;;;;;;4.47;2.10;;;25.50;99.90;;;;;;5044863;28;21025;-74
2022/08/01 09:41:53;;;;;;;5.07;2.47;;;25.50;99.90;;;;;;5045867;28;20988;-74
2022/08/01 09:44:20;;;;;;;2.30;2.10;;;25.50;99.90;;;;;;5045508;28;20540;-75
2022/08/01 09:46:53;;;;;;;3.30;2.47;;;25.70;99.90;;;;;;5045588;28;20488;-76
2022/08/01 09:49:34;;;;;;;3.20;2.20;;;25.70;99.90;;;;;;5045630;28;20443;-74
2022/08/01 09:52:11;;;;;;;5.13;2.47;;;25.70;99.90;;;;;;5044871;28;20530;-77
2022/08/01 09:54:38;;;;;;;2.93;2.60;;;25.70;99.90;;;;;;5045109;28;20465;-76
2022/08/01 09:57:10;;;;;;;4.10;2.60;;;25.70;99.90;;;;;;5045322;28;20464;-75
2022/08/01 09:59:40;;;;;;;4.00;2.57;;;25.80;99.90;;;;;;5044764;28;20461;-74
2022/08/01 10:02:10;;;;;;;3.40;2.60;;;25.80;99.90;;;;;;5045166;28;20515;-76
2022/08/01 10:04:37;;;;;;;2.90;2.13;;;25.90;99.90;;;;;;5045624;28;20457;-73
2022/08/01 10:07:08;;;;;;;3.53;2.40;;;25.80;99.90;;;;;;5046326;28;20453;-73
2022/08/01 10:09:36;;;;;;;3.43;2.20;;;25.80;99.90;;;;;;5049355;28;20540;-73
2022/08/01 10:12:04;;;;;;;3.77;2.50;;;25.80;99.90;;;;;;5049573;28;20543;-73
2022/08/01 10:14:32;;;;;;;7.73;2.40;;;25.80;99.90;;;;;;5048501;28;20471;-74
2022/08/01 10:17:01;;;;;;;3.53;2.60;;;25.80;99.90;;;;;;5047049;28;20468;-74
2022/08/01 10:19:32;;;;;;;5.07;2.77;;;25.80;99.90;;;;;;5048863;28;20452;-73
2022/08/01 10:21:59;;;;;;;5.80;2.60;;;25.80;99.90;;;;;;5047805;28;20489;-75
2022/08/01 10:24:29;;;;;;;2.50;2.30;;;25.70;99.90;;;;;;5045380;28;20452;-74
2022/08/01 10:27:02;;;;;;;2.53;2.30;;;25.80;99.90;;;;;;5048038;28;20460;-70
2022/08/01 10:29:31;;;;;;;3.17;2.30;;;25.80;99.90;;;;;;5035515;28;20450;-71
2022/08/01 10:31:58;;;;;;;4.47;2.37;;;25.80;99.90;;;;;;5025881;28;21078;-71
2022/08/01 10:34:25;;;;;;;3.70;2.60;;;25.80;99.90;;;;;;5045673;28;20828;-71
2022/08/01 10:36:53;;;;;;;3.80;2.80;;;25.80;99.90;;;;;;5047796;28;21049;-71
2022/08/01 10:39:21;;;;;;;6.10;2.40;;;25.90;99.90;;;;;;5048239;28;20833;-75
2022/08/01 10:41:49;;;;;;;2.77;2.20;;;26.00;99.90;;;;;;5047930;28;21070;-76
2022/08/01 10:44:16;;;;;;;2.83;2.23;;;26.00;99.90;;;;;;5047212;28;20546;-76
2022/08/01 10:46:49;;;;;;;4.13;2.50;;;26.10;99.90;;;;;;5047964;28;21442;-76
2022/08/01 10:49:20;;;;;;;2.87;2.57;;;26.20;99.90;;;;;;5048372;28;20436;-75
2022/08/01 10:51:47;;;;;;;3.50;2.70;;;26.20;99.90;;;;;;5048059;28;20479;-75
2022/08/01 10:54:16;;;;;;;4.40;2.93;;;26.30;99.90;;;;;;5047486;28;20460;-76
2022/08/01 10:56:45;;;;;;;4.30;2.47;;;26.30;99.90;;;;;;5042532;28;20454;-76
2022/08/01 10:59:20;;;;;;;2.97;2.23;;;26.30;99.90;;;;;;5028255;28;20457;-76
2022/08/01 11:01:58;;;;;;;5.33;2.90;;;26.30;99.90;;;;;;5028193;28;20497;-76
2022/08/01 11:04:45;;;;;;;4.03;2.73;;;26.40;99.90;;;;;;5028068;28;20892;-76
2022/08/01 11:07:18;;;;;;;5.33;2.87;;;26.40;99.90;;;;;;5028086;28;20552;-75
2022/08/01 11:09:48;;;;;;;5.80;2.63;;;26.50;99.90;;;;;;5031033;28;20870;-76
2022/08/01 11:12:16;;;;;;;3.17;2.30;;;26.60;99.90;;;;;;5030124;28;21013;-76
2022/08/01 11:15:24;;;;;;;2.33;2.10;;;26.70;99.90;;;;;;5027493;28;20473;-76
2022/08/01 11:17:51;;;;;;;2.00;1.80;;;26.80;99.90;;;;;;5024584;28;20477;-78
2022/08/01 11:20:20;;;;;;;3.43;1.93;;;26.90;99.90;;;;;;5026003;28;20457;-75
2022/08/01 11:23:23;;;;;;;3.73;2.17;;;27.00;99.90;;;;;;5027320;28;20894;-75
2022/08/01 11:26:14;;;;;;;4.00;2.60;;;27.10;99.90;;;;;;5026951;28;20945;-76
2022/08/01 11:28:43;;;;;;;5.73;2.23;;;27.20;99.90;;;;;;5028081;28;20462;-75
2022/08/01 11:31:30;;;;;;;6.63;1.93;;;27.20;99.90;;;;;;5027317;28;21313;-76
2022/08/01 11:33:58;;;;;;;2.20;2.00;;;27.30;99.90;;;;;;5026994;28;20972;-75
2022/08/01 11:36:24;;;;;;;3.17;1.93;;;27.40;99.90;;;;;;5027003;28;20472;-76
2022/08/01 11:39:14;;;;;;;3.90;2.17;;;27.40;99.90;;;;;;5028361;28;20468;-75
2022/08/01 11:41:43;;;;;;;2.57;2.13;;;27.50;99.90;;;;;;5027036;28;20984;-77
2022/08/01 11:44:13;;;;;;;2.70;1.80;;;27.60;99.90;;;;;;5028221;28;20493;-76
2022/08/01 11:46:51;;;;;;;1.80;1.70;;;27.70;99.90;;;;;;5046474;28;20449;-75
2022/08/01 11:49:35;;;;;;;1.97;1.77;;;27.70;99.90;;;;;;5047781;28;20456;-74
2022/08/01 11:52:05;;;;;;;3.77;1.80;;;27.80;99.90;;;;;;5048815;28;20485;-77
2022/08/01 11:54:34;;;;;;;3.27;1.77;;;27.90;99.90;;;;;;5047868;28;20467;-77
2022/08/01 11:57:04;;;;;;;2.63;1.60;;;27.90;99.90;;;;;;5047180;28;20453;-76
2022/08/01 11:59:38;;;;;;;1.77;1.50;;;28.00;99.90;;;;;;5045976;28;20932;-76
2022/08/01 12:02:15;;;;;;;2.40;1.70;;;28.10;99.90;;;;;;5046669;28;20480;-76
2022/08/01 12:04:54;;;;;;;2.70;2.00;;;28.20;99.90;;;;;;5046274;28;20563;-77
2022/08/01 12:07:22;;;;;;;1.60;1.50;;;28.30;99.90;;;;;;5046970;28;20475;-76
2022/08/01 12:09:56;;;;;;;2.43;1.83;;;28.30;99.90;;;;;;5047492;28;20468;-75
2022/08/01 12:12:25;;;;;;;1.97;1.53;;;28.30;99.90;;;;;;5045956;28;20472;-76
2022/08/01 12:14:58;;;;;;;1.60;1.50;;;28.30;99.90;;;;;;5045175;28;20559;-77
2022/08/01 12:17:36;;;;;;;2.23;1.67;;;28.40;99.90;;;;;;5045841;28;20465;-75
2022/08/01 12:20:05;;;;;;;1.90;1.70;;;28.50;99.90;;;;;;5048887;28;20689;-73
2022/08/01 12:22:32;;;;;;;2.03;1.60;;;28.50;99.90;;;;;;5048218;28;20481;-75
2022/08/01 12:25:09;;;;;;;2.27;1.57;;;28.50;99.90;;;;;;5045259;28;20918;-75
2022/08/01 12:27:39;;;;;;;2.43;1.60;;;28.60;99.90;;;;;;5045470;28;20479;-75
2022/08/01 12:30:07;;;;;;;2.97;1.90;;;28.60;99.90;;;;;;5045093;28;20461;-69
2022/08/01 12:32:36;;;;;;;2.40;1.77;;;28.60;99.90;;;;;;5045576;28;20480;-70
2022/08/01 12:35:05;;;;;;;5.30;2.13;;;28.60;99.90;;;;;;5045206;28;20878;-70
2022/08/01 12:37:33;;;;;;;2.10;1.90;;;28.70;99.90;;;;;;5045947;28;20465;-70
2022/08/01 12:40:00;;;;;;;4.47;1.97;;;28.80;99.90;;;;;;5045657;28;20464;-70
2022/08/01 12:42:28;;;;;;;3.03;1.80;;;28.90;99.90;;;;;;5046099;28;20560;-70
2022/08/01 12:44:56;;;;;;;4.00;1.70;;;28.90;99.90;;;;;;5045522;28;20496;-69
2022/08/01 12:47:25;;;;;;;4.33;1.60;;;28.90;99.90;;;;;;5045845;28;20468;-69
2022/08/01 12:49:52;;;;;;;2.53;1.90;;;29.00;99.90;;;;;;5047706;28;20551;-70
2022/08/01 12:52:22;;;;;;;2.73;2.03;;;29.00;99.90;;;;;;5046156;28;20911;-71
2022/08/01 12:55:06;;;;;;;4.10;1.83;;;29.00;99.90;;;;;;5045573;28;20463;-66
2022/08/01 12:57:33;;;;;;;2.67;1.70;;;28.90;99.90;;;;;;5046417;28;20449;-69
2022/08/01 13:00:21;;;;;;;2.10;1.70;;;28.90;99.90;;;;;;5045446;28;20465;-69
2022/08/01 13:02:50;;;;;;;2.53;1.70;;;28.90;99.90;;;;;;5045088;28;20894;-70
2022/08/01 13:05:19;;;;;;;2.50;2.20;;;28.90;99.90;;;;;;5044770;28;20503;-71
2022/08/01 13:07:51;;;;;;;4.03;1.80;;;29.00;99.90;;;;;;5045072;28;20465;-71
2022/08/01 13:10:27;;;;;;;3.97;1.63;;;28.90;99.90;;;;;;5045231;28;20552;-73
2022/08/01 13:12:55;;;;;;;2.30;2.10;;;28.90;99.90;;;;;;5045640;28;20445;-71
2022/08/01 13:15:27;;;;;;;2.77;1.83;;;28.80;99.90;;;;;;5044234;28;20574;-72
2022/08/01 13:17:54;;;;;;;2.17;1.77;;;28.70;99.90;;;;;;5045133;28;20807;-71
2022/08/01 13:20:26;;;;;;;2.77;1.70;;;28.60;99.90;;;;;;5045438;28;20932;-72
2022/08/01 13:22:53;;;;;;;2.33;1.90;;;28.70;99.90;;;;;;5045413;28;20461;-69
2022/08/01 13:25:21;;;;;;;3.13;1.70;;;28.80;99.90;;;;;;5044420;28;20501;-70
2022/08/01 13:27:49;;;;;;;1.67;1.53;;;28.90;99.90;;;;;;5045332;28;20472;-69
2022/08/01 13:30:18;;;;;;;3.73;1.70;;;28.90;99.90;;;;;;5045228;28;20463;-70
2022/08/01 13:32:58;;;;;;;3.13;1.40;;;29.00;99.90;;;;;;5045141;28;21004;-70
2022/08/01 13:35:25;;;;;;;2.83;1.50;;;29.00;99.90;;;;;;5044668;28;20453;-69
2022/08/01 13:37:52;;;;;;;4.13;2.00;;;29.10;99.90;;;;;;5045182;28;20483;-70
2022/08/01 13:40:25;;;;;;;1.87;1.67;;;29.30;99.90;;;;;;5044285;28;20976;-70
2022/08/01 13:42:52;;;;;;;3.27;1.90;;;29.30;99.90;;;;;;5046405;28;20437;-70
2022/08/01 13:45:19;;;;;;;2.53;2.07;;;29.50;99.90;;;;;;5048445;28;20500;-68
2022/08/01 13:47:47;;;;;;;3.40;1.90;;;29.50;99.90;;;;;;5049440;28;20467;-70
2022/08/01 13:50:14;;;;;;;6.70;2.00;;;29.50;99.90;;;;;;5048963;28;20479;-71
2022/08/01 13:52:40;;;;;;;3.40;1.70;;;29.50;99.90;;;;;;5048558;28;20818;-69
2022/08/01 13:55:08;;;;;;;1.60;1.50;;;29.60;99.90;;;;;;5048271;28;20458;-70
2022/08/01 13:57:35;;;;;;;3.40;1.70;;;29.60;99.90;;;;;;5048835;28;20979;-70
2022/08/01 14:00:02;;;;;;;1.87;1.30;;;29.60;99.90;;;;;;5049176;28;20457;-70
2022/08/01 14:02:29;;;;;;;4.23;1.40;;;29.60;99.90;;;;;;5048169;28;20822;-70
2022/08/01 14:04:58;;;;;;;2.70;1.87;;;29.70;99.90;;;;;;5047978;28;20574;-70
2022/08/01 14:07:25;;;;;;;3.30;1.70;;;29.70;99.90;;;;;;5048550;28;20956;-70
2022/08/01 14:09:52;;;;;;;5.57;1.50;;;29.70;99.90;;;;;;5048946;28;20460;-71
2022/08/01 14:12:19;;;;;;;3.00;1.70;;;29.60;99.90;;;;;;5049332;28;20480;-71
2022/08/01 14:14:46;;;;;;;2.87;1.47;;;29.60;99.90;;;;;;5048340;28;20463;-69
2022/08/01 14:17:12;;;;;;;2.87;2.10;;;29.60;99.90;;;;;;5049060;28;20467;-70
2022/08/01 14:19:39;;;;;;;2.63;1.60;;;29.60;99.90;;;;;;5048600;28;20464;-70
2022/08/01 14:22:07;;;;;;;5.00;1.47;;;29.60;99.90;;;;;;5048310;28;20988;-70
2022/08/01 14:24:34;;;;;;;1.57;1.43;;;29.50;99.90;;;;;;5047444;28;21020;-69
2022/08/01 14:27:02;;;;;;;2.27;1.47;;;29.60;99.90;;;;;;5046784;28;20466;-70
2022/08/01 14:29:29;;;;;;;2.53;1.50;;;29.60;99.90;;;;;;5047851;28;20503;-71
2022/08/01 14:31:55;;;;;;;1.67;1.57;;;29.70;99.90;;;;;;5048187;28;20997;-72
2022/08/01 14:34:22;;;;;;;2.57;1.60;;;29.80;99.90;;;;;;5047149;28;20459;-71
2022/08/01 14:36:49;;;;;;;2.20;1.60;;;29.90;99.90;;;;;;5048153;28;20548;-71
2022/08/01 14:39:18;;;;;;;2.13;1.87;;;29.90;99.90;;;;;;5048046;28;20457;-71
2022/08/01 14:41:45;;;;;;;3.87;1.83;;;29.80;99.90;;;;;;5048261;28;20477;-73
2022/08/01 14:44:11;;;;;;;4.00;1.80;;;29.70;99.90;;;;;;5047449;28;20495;-70
2022/08/01 14:46:38;;;;;;;2.83;2.07;;;29.80;99.90;;;;;;5048381;28;20487;-68
2022/08/01 14:49:05;;;;;;;4.23;2.03;;;29.80;99.90;;;;;;5047680;28;20468;-71
2022/08/01 14:51:34;;;;;;;3.20;1.97;;;29.80;99.90;;;;;;5047703;28;20489;-71
2022/08/01 14:54:01;;;;;;;4.47;1.97;;;29.90;99.90;;;;;;5047060;28;20457;-71
2022/08/01 14:56:29;;;;;;;1.70;1.47;;;30.00;99.90;;;;;;5047548;28;20457;-67
2022/08/01 14:58:56;;;;;;;2.33;1.43;;;30.10;99.90;;;;;;5047638;28;20460;-72
2022/08/01 15:01:22;;;;;;;4.17;1.73;;;30.20;99.90;;;;;;5047516;28;20485;-73
2022/08/01 15:03:53;;;;;;;1.70;1.60;;;30.20;99.90;;;;;;5047397;28;20472;-70
2022/08/01 15:06:20;;;;;;;4.07;2.07;;;30.20;99.90;;;;;;5047108;28;20457;-73
2022/08/01 15:08:47;;;;;;;2.93;1.70;;;30.30;99.90;;;;;;5047762;28;20460;-72
2022/08/01 15:11:14;;;;;;;1.93;1.70;;;30.30;99.90;;;;;;5047513;28;20480;-70
2022/08/01 15:13:42;;;;;;;5.53;1.80;;;30.30;99.90;;;;;;5048613;28;20526;-69
2022/08/01 15:16:09;;;;;;;6.00;1.90;;;30.10;99.90;;;;;;5048011;28;21402;-71
2022/08/01 15:18:35;;;;;;;4.17;1.70;;;30.00;99.90;;;;;;5047968;28;20963;-71
2022/08/01 15:21:02;;;;;;;2.33;1.90;;;29.90;99.90;;;;;;5047626;28;20477;-71
2022/08/01 15:23:29;;;;;;;2.13;1.90;;;30.00;99.90;;;;;;5047718;28;20468;-72
2022/08/01 15:25:56;;;;;;;2.30;1.50;;;30.00;99.90;;;;;;5047077;28;20868;-72
2022/08/01 15:28:23;;;;;;;2.87;1.47;;;30.10;99.90;;;;;;5048010;28;20978;-71
2022/08/01 15:30:51;;;;;;;1.67;1.40;;;30.10;99.90;;;;;;5047196;28;20481;-71
2022/08/01 15:33:19;;;;;;;3.13;1.63;;;30.10;99.90;;;;;;5047925;28;20898;-72
2022/08/01 15:35:46;;;;;;;1.80;1.53;;;30.10;99.90;;;;;;5047239;28;20522;-72
2022/08/01 15:38:12;;;;;;;4.00;1.70;;;30.20;99.90;;;;;;5047632;28;20827;-73
2022/08/01 15:40:39;;;;;;;2.33;1.90;;;30.00;99.90;;;;;;5047541;28;20513;-72
2022/08/01 15:43:13;;;;;;;4.63;1.40;;;30.10;99.90;;;;;;5047884;28;20460;-72
2022/08/01 15:45:40;;;;;;;3.80;1.90;;;30.00;99.90;;;;;;5047746;28;20500;-73
2022/08/01 15:48:08;;;;;;;2.97;1.63;;;30.00;99.90;;;;;;5048373;28;20967;-73
2022/08/01 15:50:37;;;;;;;2.27;1.70;;;30.00;99.90;;;;;;5048347;28;20487;-73
2022/08/01 15:53:04;;;;;;;1.70;1.53;;;30.00;99.90;;;;;;5048003;28;20472;-72
2022/08/01 15:55:31;;;;;;;4.73;1.90;;;30.00;99.90;;;;;;5046220;28;20510;-72
2022/08/01 15:57:58;;;;;;;2.57;1.60;;;30.00;99.90;;;;;;5047008;28;20453;-73
2022/08/01 16:00:25;;;;;;;2.23;1.30;;;29.90;99.90;;;;;;5047989;28;20560;-73
2022/08/01 16:02:52;;;;;;;4.00;1.57;;;29.70;99.90;;;;;;5046821;28;20452;-70
2022/08/01 16:05:20;;;;;;;2.23;1.40;;;29.70;99.90;;;;;;5045737;28;21043;-69
2022/08/01 16:07:47;;;;;;;2.30;1.43;;;29.70;99.90;;;;;;5046292;28;20944;-71
2022/08/01 16:10:14;;;;;;;2.13;1.73;;;29.70;99.90;;;;;;5046423;28;20453;-69
2022/08/01 16:12:41;;;;;;;2.37;1.67;;;29.60;99.90;;;;;;5047594;28;20457;-74
2022/08/01 16:15:09;;;;;;;4.10;1.50;;;29.60;99.90;;;;;;5046931;28;20468;-74
2022/08/01 16:17:36;;;;;;;1.50;1.40;;;29.60;99.90;;;;;;5046923;28;21195;-74
2022/08/01 16:20:03;;;;;;;2.67;1.70;;;29.50;99.90;;;;;;5047208;28;20469;-73
2022/08/01 16:22:33;;;;;;;1.80;1.50;;;29.50;99.90;;;;;;5045707;28;20484;-73
2022/08/01 16:25:00;;;;;;;2.50;1.50;;;29.50;99.90;;;;;;5046202;28;20488;-73
2022/08/01 16:27:29;;;;;;;1.63;1.53;;;29.40;99.90;;;;;;5047959;28;20457;-73
2022/08/01 16:29:56;;;;;;;1.73;1.10;;;29.40;99.90;;;;;;5045935;28;20526;-72
2022/08/01 16:32:23;;;;;;;1.57;1.43;;;29.40;99.90;;;;;;5045554;28;21009;-73
2022/08/01 16:34:50;;;;;;;1.50;1.40;;;29.40;99.90;;;;;;5045277;28;20475;-72
2022/08/01 16:37:17;;;;;;;5.67;1.50;;;29.30;99.90;;;;;;5044848;28;20473;-72
2022/08/01 16:39:45;;;;;;;1.90;1.30;;;29.30;99.90;;;;;;5045315;28;20889;-72
2022/08/01 16:42:12;;;;;;;1.83;1.33;;;29.30;99.90;;;;;;5045503;28;20867;-72
2022/08/01 16:44:39;;;;;;;1.90;1.53;;;29.30;99.90;;;;;;5044757;28;20485;-72
2022/08/01 16:47:07;;;;;;;1.93;1.50;;;29.30;99.90;;;;;;5045736;28;20526;-72
2022/08/01 16:49:34;;;;;;;2.87;1.60;;;29.10;99.90;;;;;;5045567;28;20860;-73
2022/08/01 16:52:01;;;;;;;2.67;1.43;;;29.10;99.90;;;;;;5044992;28;20476;-72
2022/08/01 16:54:28;;;;;;;1.67;1.40;;;29.00;99.90;;;;;;5045021;28;20453;-72
2022/08/01 16:56:59;;;;;;;2.00;1.50;;;29.00;99.90;;;;;;5045468;28;20456;-73
2022/08/01 16:59:26;;;;;;;2.70;1.97;;;29.00;99.90;;;;;;5045403;28;20489;-72